sensor_id;sensor_type;location;lat;lon;timestamp;P1;durP1;ratioP1;P2;durP2;ratioP2
19521;SDS011;9905;52.126;5.596;2022-08-02T00:01:56;4.32;;;4.03;;
19521;SDS011;9905;52.126;5.596;2022-08-02T00:04:22;3.90;;;3.60;;
19521;SDS011;9905;52.126;5.596;2022-08-02T00:06:49;4.30;;;3.70;;
19521;SDS011;9905;52.126;5.596;2022-08-02T00:09:16;4.10;;;3.83;;
19521;SDS011;9905;52.126;5.596;2022-08-02T00:11:43;3.92;;;3.63;;
19521;SDS011;9905;52.126;5.596;2022-08-02T00:14:11;3.58;;;3.38;;
19521;SDS011;9905;52.126;5.596;2022-08-02T00:16:37;4.57;;;4.10;;
19521;SDS011;9905;52.126;5.596;2022-08-02T00:19:04;4.53;;;3.60;;
19521;SDS011;9905;52.126;5.596;2022-08-02T00:21:31;3.95;;;3.65;;
19521;SDS011;9905;52.126;5.596;2022-08-02T00:23:58;4.50;;;3.50;;
19521;SDS011;9905;52.126;5.596;2022-08-02T00:26:24;4.70;;;3.80;;
19521;SDS011;9905;52.126;5.596;2022-08-02T00:28:51;4.35;;;3.90;;
19521;SDS011;9905;52.126;5.596;2022-08-02T00:31:19;5.10;;;3.47;;
19521;SDS011;9905;52.126;5.596;2022-08-02T00:33:46;3.70;;;3.50;;
19521;SDS011;9905;52.126;5.596;2022-08-02T00:36:13;4.40;;;3.85;;
19521;SDS011;9905;52.126;5.596;2022-08-02T00:38:39;3.42;;;3.22;;
19521;SDS011;9905;52.126;5.596;2022-08-02T00:41:10;3.90;;;3.60;;
19521;SDS011;9905;52.126;5.596;2022-08-02T00:43:38;4.07;;;3.70;;
19521;SDS011;9905;52.126;5.596;2022-08-02T00:46:05;3.90;;;3.70;;
19521;SDS011;9905;52.126;5.596;2022-08-02T00:48:33;3.97;;;3.55;;
19521;SDS011;9905;52.126;5.596;2022-08-02T00:51:00;3.75;;;3.55;;
19521;SDS011;9905;52.126;5.596;2022-08-02T00:53:27;3.92;;;3.47;;
19521;SDS011;9905;52.126;5.596;2022-08-02T00:55:54;4.13;;;3.50;;
19521;SDS011;9905;52.126;5.596;2022-08-02T00:58:21;3.80;;;3.40;;
19521;SDS011;9905;52.126;5.596;2022-08-02T01:00:48;4.78;;;3.40;;
19521;SDS011;9905;52.126;5.596;2022-08-02T01:03:14;4.00;;;3.70;;
19521;SDS011;9905;52.126;5.596;2022-08-02T01:05:43;3.97;;;3.67;;
19521;SDS011;9905;52.126;5.596;2022-08-02T01:08:10;4.20;;;3.92;;
19521;SDS011;9905;52.126;5.596;2022-08-02T01:10:36;4.82;;;3.40;;
19521;SDS011;9905;52.126;5.596;2022-08-02T01:13:03;5.30;;;3.70;;
19521;SDS011;9905;52.126;5.596;2022-08-02T01:15:30;3.50;;;3.13;;
19521;SDS011;9905;52.126;5.596;2022-08-02T01:18:01;3.60;;;3.17;;
19521;SDS011;9905;52.126;5.596;2022-08-02T01:20:40;6.00;;;3.65;;
19521;SDS011;9905;52.126;5.596;2022-08-02T01:23:40;3.83;;;3.17;;
19521;SDS011;9905;52.126;5.596;2022-08-02T01:29:07;3.20;;;3.00;;
19521;SDS011;9905;52.126;5.596;2022-08-02T01:31:37;3.20;;;3.00;;
19521;SDS011;9905;52.126;5.596;2022-08-02T01:34:10;4.53;;;3.40;;
19521;SDS011;9905;52.126;5.596;2022-08-02T01:36:42;4.20;;;3.20;;
19521;SDS011;9905;52.126;5.596;2022-08-02T01:39:12;4.60;;;3.28;;
19521;SDS011;9905;52.126;5.596;2022-08-02T01:41:42;4.28;;;3.35;;
19521;SDS011;9905;52.126;5.596;2022-08-02T01:44:12;2.97;;;2.83;;
19521;SDS011;9905;52.126;5.596;2022-08-02T01:46:41;4.20;;;2.95;;
19521;SDS011;9905;52.126;5.596;2022-08-02T01:49:11;3.35;;;3.15;;
19521;SDS011;9905;52.126;5.596;2022-08-02T01:51:42;4.47;;;3.63;;
19521;SDS011;9905;52.126;5.596;2022-08-02T01:54:32;3.75;;;3.25;;
19521;SDS011;9905;52.126;5.596;2022-08-02T01:57:00;4.90;;;3.38;;
19521;SDS011;9905;52.126;5.596;2022-08-02T01:59:31;3.63;;;2.90;;
19521;SDS011;9905;52.126;5.596;2022-08-02T02:02:00;3.47;;;3.20;;
19521;SDS011;9905;52.126;5.596;2022-08-02T02:04:28;7.75;;;3.10;;
19521;SDS011;9905;52.126;5.596;2022-08-02T02:06:57;3.42;;;2.75;;
19521;SDS011;9905;52.126;5.596;2022-08-02T02:09:26;3.72;;;3.10;;
19521;SDS011;9905;52.126;5.596;2022-08-02T02:11:55;6.90;;;3.50;;
19521;SDS011;9905;52.126;5.596;2022-08-02T02:14:24;3.13;;;2.70;;
19521;SDS011;9905;52.126;5.596;2022-08-02T02:16:54;3.30;;;3.05;;
19521;SDS011;9905;52.126;5.596;2022-08-02T02:19:24;5.45;;;3.33;;
19521;SDS011;9905;52.126;5.596;2022-08-02T02:21:52;3.92;;;3.55;;
19521;SDS011;9905;52.126;5.596;2022-08-02T02:24:19;3.80;;;3.40;;
19521;SDS011;9905;52.126;5.596;2022-08-02T02:26:46;3.47;;;3.15;;
19521;SDS011;9905;52.126;5.596;2022-08-02T02:29:13;4.90;;;3.35;;
19521;SDS011;9905;52.126;5.596;2022-08-02T02:31:43;3.60;;;3.40;;
19521;SDS011;9905;52.126;5.596;2022-08-02T02:34:15;3.63;;;3.33;;
19521;SDS011;9905;52.126;5.596;2022-08-02T02:36:48;3.85;;;3.45;;
19521;SDS011;9905;52.126;5.596;2022-08-02T02:39:17;5.20;;;2.80;;
19521;SDS011;9905;52.126;5.596;2022-08-02T02:41:46;5.60;;;3.30;;
19521;SDS011;9905;52.126;5.596;2022-08-02T02:44:16;3.22;;;3.03;;
19521;SDS011;9905;52.126;5.596;2022-08-02T02:46:45;4.00;;;3.15;;
19521;SDS011;9905;52.126;5.596;2022-08-02T02:49:15;3.88;;;2.85;;
19521;SDS011;9905;52.126;5.596;2022-08-02T02:51:44;3.08;;;2.88;;
19521;SDS011;9905;52.126;5.596;2022-08-02T02:54:11;4.70;;;3.20;;
19521;SDS011;9905;52.126;5.596;2022-08-02T02:56:40;3.80;;;3.53;;
19521;SDS011;9905;52.126;5.596;2022-08-02T02:59:09;3.97;;;3.35;;
19521;SDS011;9905;52.126;5.596;2022-08-02T03:01:37;4.30;;;3.25;;
19521;SDS011;9905;52.126;5.596;2022-08-02T03:04:05;3.60;;;3.35;;
19521;SDS011;9905;52.126;5.596;2022-08-02T03:06:37;3.72;;;3.53;;
19521;SDS011;9905;52.126;5.596;2022-08-02T03:09:04;4.07;;;3.78;;
19521;SDS011;9905;52.126;5.596;2022-08-02T03:11:32;3.58;;;3.28;;
19521;SDS011;9905;52.126;5.596;2022-08-02T03:14:01;3.45;;;3.13;;
19521;SDS011;9905;52.126;5.596;2022-08-02T03:16:29;3.30;;;3.10;;
19521;SDS011;9905;52.126;5.596;2022-08-02T03:18:56;3.63;;;3.20;;
19521;SDS011;9905;52.126;5.596;2022-08-02T03:21:26;3.40;;;3.10;;
19521;SDS011;9905;52.126;5.596;2022-08-02T03:23:54;3.55;;;3.22;;
19521;SDS011;9905;52.126;5.596;2022-08-02T03:26:21;3.58;;;3.38;;
19521;SDS011;9905;52.126;5.596;2022-08-02T03:28:48;4.63;;;3.50;;
19521;SDS011;9905;52.126;5.596;2022-08-02T03:31:14;3.90;;;3.55;;
19521;SDS011;9905;52.126;5.596;2022-08-02T03:33:41;3.72;;;3.25;;
19521;SDS011;9905;52.126;5.596;2022-08-02T03:36:09;3.50;;;3.20;;
19521;SDS011;9905;52.126;5.596;2022-08-02T03:38:37;3.80;;;3.53;;
19521;SDS011;9905;52.126;5.596;2022-08-02T03:41:06;6.72;;;4.20;;
19521;SDS011;9905;52.126;5.596;2022-08-02T03:43:34;4.30;;;3.60;;
19521;SDS011;9905;52.126;5.596;2022-08-02T03:46:03;4.53;;;3.22;;
19521;SDS011;9905;52.126;5.596;2022-08-02T03:48:31;4.57;;;3.50;;
19521;SDS011;9905;52.126;5.596;2022-08-02T03:50:58;4.10;;;3.70;;
19521;SDS011;9905;52.126;5.596;2022-08-02T03:53:26;3.67;;;3.38;;
19521;SDS011;9905;52.126;5.596;2022-08-02T03:55:53;3.15;;;3.00;;
19521;SDS011;9905;52.126;5.596;2022-08-02T03:58:23;4.80;;;3.05;;
19521;SDS011;9905;52.126;5.596;2022-08-02T04:00:50;3.90;;;3.58;;
19521;SDS011;9905;52.126;5.596;2022-08-02T04:03:18;6.32;;;3.15;;
19521;SDS011;9905;52.126;5.596;2022-08-02T04:05:45;4.07;;;3.20;;
19521;SDS011;9905;52.126;5.596;2022-08-02T04:08:12;3.55;;;3.25;;
19521;SDS011;9905;52.126;5.596;2022-08-02T04:10:38;3.45;;;3.15;;
19521;SDS011;9905;52.126;5.596;2022-08-02T04:13:26;2.97;;;2.78;;
19521;SDS011;9905;52.126;5.596;2022-08-02T04:15:56;6.07;;;3.13;;
19521;SDS011;9905;52.126;5.596;2022-08-02T04:18:27;3.55;;;3.25;;
19521;SDS011;9905;52.126;5.596;2022-08-02T04:20:59;6.57;;;3.40;;
19521;SDS011;9905;52.126;5.596;2022-08-02T04:23:29;3.83;;;3.40;;
19521;SDS011;9905;52.126;5.596;2022-08-02T04:25:58;3.38;;;3.13;;
19521;SDS011;9905;52.126;5.596;2022-08-02T04:28:27;3.65;;;3.17;;
19521;SDS011;9905;52.126;5.596;2022-08-02T04:30:54;4.68;;;3.60;;
19521;SDS011;9905;52.126;5.596;2022-08-02T04:33:22;5.07;;;3.35;;
19521;SDS011;9905;52.126;5.596;2022-08-02T04:35:50;4.10;;;3.25;;
19521;SDS011;9905;52.126;5.596;2022-08-02T04:38:17;5.00;;;3.40;;
19521;SDS011;9905;52.126;5.596;2022-08-02T04:40:50;6.35;;;3.47;;
19521;SDS011;9905;52.126;5.596;2022-08-02T04:43:18;3.90;;;3.70;;
19521;SDS011;9905;52.126;5.596;2022-08-02T04:45:47;4.40;;;4.00;;
19521;SDS011;9905;52.126;5.596;2022-08-02T04:48:17;4.20;;;3.80;;
19521;SDS011;9905;52.126;5.596;2022-08-02T04:50:43;3.92;;;3.55;;
19521;SDS011;9905;52.126;5.596;2022-08-02T04:53:10;3.70;;;3.40;;
19521;SDS011;9905;52.126;5.596;2022-08-02T04:55:37;4.72;;;3.95;;
19521;SDS011;9905;52.126;5.596;2022-08-02T04:58:04;3.95;;;3.38;;
19521;SDS011;9905;52.126;5.596;2022-08-02T05:00:30;6.20;;;3.90;;
19521;SDS011;9905;52.126;5.596;2022-08-02T05:02:59;6.07;;;3.53;;
19521;SDS011;9905;52.126;5.596;2022-08-02T05:05:26;4.32;;;3.63;;
19521;SDS011;9905;52.126;5.596;2022-08-02T05:07:53;9.45;;;3.95;;
19521;SDS011;9905;52.126;5.596;2022-08-02T05:10:20;7.60;;;3.90;;
19521;SDS011;9905;52.126;5.596;2022-08-02T05:12:50;4.55;;;4.00;;
19521;SDS011;9905;52.126;5.596;2022-08-02T05:15:17;6.53;;;3.33;;
19521;SDS011;9905;52.126;5.596;2022-08-02T05:17:44;3.72;;;3.53;;
19521;SDS011;9905;52.126;5.596;2022-08-02T05:20:13;6.63;;;3.65;;
19521;SDS011;9905;52.126;5.596;2022-08-02T05:22:40;3.63;;;3.30;;
19521;SDS011;9905;52.126;5.596;2022-08-02T05:25:07;3.75;;;3.45;;
19521;SDS011;9905;52.126;5.596;2022-08-02T05:27:35;5.18;;;3.65;;
19521;SDS011;9905;52.126;5.596;2022-08-02T05:30:02;5.70;;;3.75;;
19521;SDS011;9905;52.126;5.596;2022-08-02T05:32:29;3.38;;;3.17;;
19521;SDS011;9905;52.126;5.596;2022-08-02T05:34:56;10.73;;;3.72;;
19521;SDS011;9905;52.126;5.596;2022-08-02T05:37:24;3.70;;;3.40;;
19521;SDS011;9905;52.126;5.596;2022-08-02T05:39:50;5.05;;;3.20;;
19521;SDS011;9905;52.126;5.596;2022-08-02T05:42:17;3.22;;;3.10;;
19521;SDS011;9905;52.126;5.596;2022-08-02T05:44:44;5.47;;;3.60;;
19521;SDS011;9905;52.126;5.596;2022-08-02T05:47:10;5.75;;;3.42;;
19521;SDS011;9905;52.126;5.596;2022-08-02T05:49:37;6.45;;;3.63;;
19521;SDS011;9905;52.126;5.596;2022-08-02T05:52:06;3.63;;;3.38;;
19521;SDS011;9905;52.126;5.596;2022-08-02T05:54:42;6.68;;;3.60;;
19521;SDS011;9905;52.126;5.596;2022-08-02T05:57:16;12.73;;;4.40;;
19521;SDS011;9905;52.126;5.596;2022-08-02T05:59:52;5.22;;;3.63;;
19521;SDS011;9905;52.126;5.596;2022-08-02T06:02:28;4.90;;;3.92;;
19521;SDS011;9905;52.126;5.596;2022-08-02T06:05:03;7.38;;;4.15;;
19521;SDS011;9905;52.126;5.596;2022-08-02T06:07:33;3.80;;;3.50;;
19521;SDS011;9905;52.126;5.596;2022-08-02T06:10:03;8.98;;;4.60;;
19521;SDS011;9905;52.126;5.596;2022-08-02T06:12:31;7.22;;;4.38;;
19521;SDS011;9905;52.126;5.596;2022-08-02T06:15:02;4.70;;;4.22;;
19521;SDS011;9905;52.126;5.596;2022-08-02T06:17:30;5.43;;;3.97;;
19521;SDS011;9905;52.126;5.596;2022-08-02T06:19:58;4.47;;;4.10;;
19521;SDS011;9905;52.126;5.596;2022-08-02T06:22:26;6.47;;;3.90;;
19521;SDS011;9905;52.126;5.596;2022-08-02T06:24:54;4.57;;;4.15;;
19521;SDS011;9905;52.126;5.596;2022-08-02T06:27:22;5.00;;;4.50;;
19521;SDS011;9905;52.126;5.596;2022-08-02T06:29:53;4.57;;;3.90;;
19521;SDS011;9905;52.126;5.596;2022-08-02T06:32:20;4.47;;;4.05;;
19521;SDS011;9905;52.126;5.596;2022-08-02T06:34:47;7.95;;;3.78;;
19521;SDS011;9905;52.126;5.596;2022-08-02T06:37:20;7.25;;;4.55;;
19521;SDS011;9905;52.126;5.596;2022-08-02T06:39:53;5.35;;;4.38;;
19521;SDS011;9905;52.126;5.596;2022-08-02T06:42:32;5.68;;;4.43;;
19521;SDS011;9905;52.126;5.596;2022-08-02T06:45:09;5.00;;;3.88;;
19521;SDS011;9905;52.126;5.596;2022-08-02T06:47:36;4.70;;;3.90;;
19521;SDS011;9905;52.126;5.596;2022-08-02T06:50:03;5.97;;;4.47;;
19521;SDS011;9905;52.126;5.596;2022-08-02T06:52:30;7.68;;;5.43;;
19521;SDS011;9905;52.126;5.596;2022-08-02T06:54:57;6.22;;;4.53;;
19521;SDS011;9905;52.126;5.596;2022-08-02T06:57:24;4.75;;;4.28;;
19521;SDS011;9905;52.126;5.596;2022-08-02T06:59:53;4.82;;;4.10;;
19521;SDS011;9905;52.126;5.596;2022-08-02T07:02:20;5.03;;;4.45;;
19521;SDS011;9905;52.126;5.596;2022-08-02T07:04:47;5.30;;;4.63;;
19521;SDS011;9905;52.126;5.596;2022-08-02T07:07:13;7.03;;;4.80;;
19521;SDS011;9905;52.126;5.596;2022-08-02T07:09:40;11.05;;;5.47;;
19521;SDS011;9905;52.126;5.596;2022-08-02T07:12:07;6.13;;;5.63;;
19521;SDS011;9905;52.126;5.596;2022-08-02T07:14:34;6.53;;;5.78;;
19521;SDS011;9905;52.126;5.596;2022-08-02T07:17:02;6.25;;;5.55;;
19521;SDS011;9905;52.126;5.596;2022-08-02T07:19:29;7.55;;;6.80;;
19521;SDS011;9905;52.126;5.596;2022-08-02T07:21:55;8.05;;;6.53;;
19521;SDS011;9905;52.126;5.596;2022-08-02T07:24:22;7.93;;;7.20;;
19521;SDS011;9905;52.126;5.596;2022-08-02T07:26:49;7.22;;;6.70;;
19521;SDS011;9905;52.126;5.596;2022-08-02T07:29:15;9.15;;;7.10;;
19521;SDS011;9905;52.126;5.596;2022-08-02T07:31:42;7.00;;;6.60;;
19521;SDS011;9905;52.126;5.596;2022-08-02T07:34:10;9.43;;;7.15;;
19521;SDS011;9905;52.126;5.596;2022-08-02T07:36:37;8.07;;;7.38;;
19521;SDS011;9905;52.126;5.596;2022-08-02T07:39:04;8.50;;;7.68;;
19521;SDS011;9905;52.126;5.596;2022-08-02T07:41:30;8.43;;;7.65;;
19521;SDS011;9905;52.126;5.596;2022-08-02T07:44:00;8.30;;;7.50;;
19521;SDS011;9905;52.126;5.596;2022-08-02T07:46:28;9.07;;;8.07;;
19521;SDS011;9905;52.126;5.596;2022-08-02T07:48:57;10.48;;;8.10;;
19521;SDS011;9905;52.126;5.596;2022-08-02T07:51:25;10.32;;;8.27;;
19521;SDS011;9905;52.126;5.596;2022-08-02T07:53:51;9.02;;;8.20;;
19521;SDS011;9905;52.126;5.596;2022-08-02T07:56:18;8.90;;;7.88;;
19521;SDS011;9905;52.126;5.596;2022-08-02T07:58:45;9.00;;;8.30;;
19521;SDS011;9905;52.126;5.596;2022-08-02T08:01:12;9.80;;;8.95;;
19521;SDS011;9905;52.126;5.596;2022-08-02T08:03:38;10.07;;;8.43;;
19521;SDS011;9905;52.126;5.596;2022-08-02T08:06:05;9.80;;;9.00;;
19521;SDS011;9905;52.126;5.596;2022-08-02T08:08:34;9.40;;;8.30;;
19521;SDS011;9905;52.126;5.596;2022-08-02T08:11:00;10.23;;;9.20;;
19521;SDS011;9905;52.126;5.596;2022-08-02T08:13:27;10.07;;;9.10;;
19521;SDS011;9905;52.126;5.596;2022-08-02T08:15:54;9.90;;;8.90;;
19521;SDS011;9905;52.126;5.596;2022-08-02T08:18:21;11.10;;;10.00;;
19521;SDS011;9905;52.126;5.596;2022-08-02T08:20:47;10.95;;;9.93;;
19521;SDS011;9905;52.126;5.596;2022-08-02T08:23:15;12.82;;;10.70;;
19521;SDS011;9905;52.126;5.596;2022-08-02T08:25:43;11.38;;;10.07;;
19521;SDS011;9905;52.126;5.596;2022-08-02T08:28:10;10.70;;;9.70;;
19521;SDS011;9905;52.126;5.596;2022-08-02T08:30:38;11.82;;;10.40;;
19521;SDS011;9905;52.126;5.596;2022-08-02T08:33:06;12.35;;;9.60;;
19521;SDS011;9905;52.126;5.596;2022-08-02T08:35:33;10.75;;;9.77;;
19521;SDS011;9905;52.126;5.596;2022-08-02T08:38:00;10.18;;;8.95;;
19521;SDS011;9905;52.126;5.596;2022-08-02T08:40:26;9.75;;;8.98;;
19521;SDS011;9905;52.126;5.596;2022-08-02T08:42:54;10.00;;;8.90;;
19521;SDS011;9905;52.126;5.596;2022-08-02T08:45:21;9.70;;;8.90;;
19521;SDS011;9905;52.126;5.596;2022-08-02T08:47:50;10.15;;;9.05;;
19521;SDS011;9905;52.126;5.596;2022-08-02T08:50:23;9.73;;;8.82;;
19521;SDS011;9905;52.126;5.596;2022-08-02T08:52:52;9.70;;;8.73;;
19521;SDS011;9905;52.126;5.596;2022-08-02T08:55:22;9.27;;;8.20;;
19521;SDS011;9905;52.126;5.596;2022-08-02T08:57:51;8.60;;;7.70;;
19521;SDS011;9905;52.126;5.596;2022-08-02T09:00:21;8.63;;;6.85;;
19521;SDS011;9905;52.126;5.596;2022-08-02T09:02:47;6.90;;;6.32;;
19521;SDS011;9905;52.126;5.596;2022-08-02T09:05:15;7.13;;;6.53;;
19521;SDS011;9905;52.126;5.596;2022-08-02T09:07:44;5.97;;;5.57;;
19521;SDS011;9905;52.126;5.596;2022-08-02T09:13:05;5.30;;;4.90;;
19521;SDS011;9905;52.126;5.596;2022-08-02T09:15:34;5.85;;;5.53;;
19521;SDS011;9905;52.126;5.596;2022-08-02T09:18:02;5.78;;;5.35;;
19521;SDS011;9905;52.126;5.596;2022-08-02T09:20:29;5.43;;;5.13;;
19521;SDS011;9905;52.126;5.596;2022-08-02T09:23:06;5.68;;;5.28;;
19521;SDS011;9905;52.126;5.596;2022-08-02T09:25:34;6.05;;;5.55;;
19521;SDS011;9905;52.126;5.596;2022-08-02T09:28:02;5.90;;;5.35;;
19521;SDS011;9905;52.126;5.596;2022-08-02T09:30:30;5.28;;;4.93;;
19521;SDS011;9905;52.126;5.596;2022-08-02T09:32:58;4.95;;;4.65;;
19521;SDS011;9905;52.126;5.596;2022-08-02T09:35:33;4.50;;;4.20;;
19521;SDS011;9905;52.126;5.596;2022-08-02T09:38:07;5.05;;;4.75;;
19521;SDS011;9905;52.126;5.596;2022-08-02T09:40:35;4.80;;;4.40;;
19521;SDS011;9905;52.126;5.596;2022-08-02T09:43:03;6.45;;;5.85;;
19521;SDS011;9905;52.126;5.596;2022-08-02T09:45:30;5.78;;;5.22;;
19521;SDS011;9905;52.126;5.596;2022-08-02T09:47:59;5.22;;;4.90;;
19521;SDS011;9905;52.126;5.596;2022-08-02T09:50:27;6.05;;;5.60;;
19521;SDS011;9905;52.126;5.596;2022-08-02T09:52:54;5.30;;;4.90;;
19521;SDS011;9905;52.126;5.596;2022-08-02T09:55:21;5.88;;;5.47;;
19521;SDS011;9905;52.126;5.596;2022-08-02T09:57:48;6.63;;;5.63;;
19521;SDS011;9905;52.126;5.596;2022-08-02T10:00:15;5.00;;;4.60;;
19521;SDS011;9905;52.126;5.596;2022-08-02T10:05:43;6.25;;;5.75;;
19521;SDS011;9905;52.126;5.596;2022-08-02T10:08:12;6.38;;;5.88;;
19521;SDS011;9905;52.126;5.596;2022-08-02T10:10:39;6.22;;;5.70;;
19521;SDS011;9905;52.126;5.596;2022-08-02T10:13:06;6.85;;;6.15;;
19521;SDS011;9905;52.126;5.596;2022-08-02T10:15:34;6.63;;;6.03;;
19521;SDS011;9905;52.126;5.596;2022-08-02T10:18:02;7.25;;;6.60;;
19521;SDS011;9905;52.126;5.596;2022-08-02T10:20:32;7.22;;;6.53;;
19521;SDS011;9905;52.126;5.596;2022-08-02T10:23:06;7.57;;;6.88;;
19521;SDS011;9905;52.126;5.596;2022-08-02T10:25:35;6.32;;;5.60;;
19521;SDS011;9905;52.126;5.596;2022-08-02T10:28:03;6.28;;;5.68;;
19521;SDS011;9905;52.126;5.596;2022-08-02T10:30:32;6.78;;;6.18;;
19521;SDS011;9905;52.126;5.596;2022-08-02T10:33:01;5.22;;;4.82;;
19521;SDS011;9905;52.126;5.596;2022-08-02T10:35:28;6.90;;;5.13;;
19521;SDS011;9905;52.126;5.596;2022-08-02T10:38:03;5.22;;;4.90;;
19521;SDS011;9905;52.126;5.596;2022-08-02T10:40:42;6.57;;;5.38;;
19521;SDS011;9905;52.126;5.596;2022-08-02T10:43:10;4.85;;;4.55;;
19521;SDS011;9905;52.126;5.596;2022-08-02T10:45:38;5.10;;;4.60;;
19521;SDS011;9905;52.126;5.596;2022-08-02T10:48:07;4.43;;;4.05;;
19521;SDS011;9905;52.126;5.596;2022-08-02T10:50:51;4.03;;;3.72;;
19521;SDS011;9905;52.126;5.596;2022-08-02T10:53:20;4.05;;;3.72;;
19521;SDS011;9905;52.126;5.596;2022-08-02T10:55:51;4.85;;;4.47;;
19521;SDS011;9905;52.126;5.596;2022-08-02T10:58:19;4.32;;;4.03;;
19521;SDS011;9905;52.126;5.596;2022-08-02T11:00:47;4.43;;;4.05;;
19521;SDS011;9905;52.126;5.596;2022-08-02T11:06:08;4.00;;;3.60;;
19521;SDS011;9905;52.126;5.596;2022-08-02T11:08:36;3.90;;;3.70;;
19521;SDS011;9905;52.126;5.596;2022-08-02T11:11:14;4.20;;;3.85;;
19521;SDS011;9905;52.126;5.596;2022-08-02T11:13:58;4.68;;;4.03;;
19521;SDS011;9905;52.126;5.596;2022-08-02T11:19:27;3.78;;;3.58;;
19521;SDS011;9905;52.126;5.596;2022-08-02T11:22:00;3.33;;;3.13;;
19521;SDS011;9905;52.126;5.596;2022-08-02T11:24:29;3.45;;;3.25;;
19521;SDS011;9905;52.126;5.596;2022-08-02T11:26:57;3.70;;;3.30;;
19521;SDS011;9905;52.126;5.596;2022-08-02T11:29:35;3.22;;;3.03;;
19521;SDS011;9905;52.126;5.596;2022-08-02T11:32:04;3.30;;;3.10;;
19521;SDS011;9905;52.126;5.596;2022-08-02T11:34:33;3.65;;;3.45;;
19521;SDS011;9905;52.126;5.596;2022-08-02T11:37:01;4.30;;;4.00;;
19521;SDS011;9905;52.126;5.596;2022-08-02T11:39:28;3.95;;;3.53;;
19521;SDS011;9905;52.126;5.596;2022-08-02T11:41:55;4.07;;;3.78;;
19521;SDS011;9905;52.126;5.596;2022-08-02T11:44:23;3.53;;;3.22;;
19521;SDS011;9905;52.126;5.596;2022-08-02T11:46:54;3.35;;;3.15;;
19521;SDS011;9905;52.126;5.596;2022-08-02T11:49:21;3.65;;;3.42;;
19521;SDS011;9905;52.126;5.596;2022-08-02T11:51:52;2.67;;;2.47;;
19521;SDS011;9905;52.126;5.596;2022-08-02T11:54:25;2.90;;;2.70;;
19521;SDS011;9905;52.126;5.596;2022-08-02T11:57:12;2.28;;;2.17;;
19521;SDS011;9905;52.126;5.596;2022-08-02T11:59:41;3.72;;;2.17;;
19521;SDS011;9905;52.126;5.596;2022-08-02T12:02:09;2.63;;;2.53;;
19521;SDS011;9905;52.126;5.596;2022-08-02T12:04:38;3.75;;;2.65;;
19521;SDS011;9905;52.126;5.596;2022-08-02T12:07:05;2.72;;;2.53;;
19521;SDS011;9905;52.126;5.596;2022-08-02T12:09:34;1.98;;;1.88;;
19521;SDS011;9905;52.126;5.596;2022-08-02T12:12:02;2.42;;;2.22;;
19521;SDS011;9905;52.126;5.596;2022-08-02T12:14:30;2.28;;;2.17;;
19521;SDS011;9905;52.126;5.596;2022-08-02T12:16:57;2.35;;;1.90;;
19521;SDS011;9905;52.126;5.596;2022-08-02T12:19:42;2.20;;;2.10;;
19521;SDS011;9905;52.126;5.596;2022-08-02T12:22:11;2.58;;;2.38;;
19521;SDS011;9905;52.126;5.596;2022-08-02T12:24:42;2.45;;;2.20;;
19521;SDS011;9905;52.126;5.596;2022-08-02T12:27:26;2.63;;;2.42;;
19521;SDS011;9905;52.126;5.596;2022-08-02T12:29:57;2.50;;;2.30;;
19521;SDS011;9905;52.126;5.596;2022-08-02T12:32:25;2.20;;;2.00;;
19521;SDS011;9905;52.126;5.596;2022-08-02T12:35:00;2.00;;;1.90;;
19521;SDS011;9905;52.126;5.596;2022-08-02T12:37:32;2.85;;;2.00;;
19521;SDS011;9905;52.126;5.596;2022-08-02T12:40:02;2.08;;;1.98;;
19521;SDS011;9905;52.126;5.596;2022-08-02T12:42:46;1.85;;;1.75;;
19521;SDS011;9905;52.126;5.596;2022-08-02T12:45:14;2.22;;;2.05;;
19521;SDS011;9905;52.126;5.596;2022-08-02T12:47:44;2.20;;;1.50;;
19521;SDS011;9905;52.126;5.596;2022-08-02T12:50:13;1.88;;;1.70;;
19521;SDS011;9905;52.126;5.596;2022-08-02T12:52:42;1.80;;;1.63;;
19521;SDS011;9905;52.126;5.596;2022-08-02T12:55:17;1.83;;;1.73;;
19521;SDS011;9905;52.126;5.596;2022-08-02T12:57:56;1.90;;;1.60;;
19521;SDS011;9905;52.126;5.596;2022-08-02T13:00:25;1.80;;;1.70;;
19521;SDS011;9905;52.126;5.596;2022-08-02T13:02:53;1.83;;;1.73;;
19521;SDS011;9905;52.126;5.596;2022-08-02T13:05:19;2.20;;;1.50;;
19521;SDS011;9905;52.126;5.596;2022-08-02T13:07:46;1.70;;;1.60;;
19521;SDS011;9905;52.126;5.596;2022-08-02T13:10:13;3.60;;;1.50;;
19521;SDS011;9905;52.126;5.596;2022-08-02T13:12:42;1.73;;;1.63;;
19521;SDS011;9905;52.126;5.596;2022-08-02T13:15:09;2.30;;;1.60;;
19521;SDS011;9905;52.126;5.596;2022-08-02T13:17:36;1.85;;;1.70;;
19521;SDS011;9905;52.126;5.596;2022-08-02T13:20:03;2.20;;;1.70;;
19521;SDS011;9905;52.126;5.596;2022-08-02T13:22:30;1.58;;;1.48;;
19521;SDS011;9905;52.126;5.596;2022-08-02T13:24:57;2.10;;;1.40;;
19521;SDS011;9905;52.126;5.596;2022-08-02T13:27:24;3.00;;;1.20;;
19521;SDS011;9905;52.126;5.596;2022-08-02T13:29:53;2.65;;;1.70;;
19521;SDS011;9905;52.126;5.596;2022-08-02T13:32:21;1.40;;;1.40;;
19521;SDS011;9905;52.126;5.596;2022-08-02T13:34:48;1.65;;;1.58;;
19521;SDS011;9905;52.126;5.596;2022-08-02T13:37:15;1.35;;;1.35;;
19521;SDS011;9905;52.126;5.596;2022-08-02T13:39:42;1.40;;;1.30;;
19521;SDS011;9905;52.126;5.596;2022-08-02T13:42:09;4.28;;;1.48;;
19521;SDS011;9905;52.126;5.596;2022-08-02T13:44:36;1.65;;;1.52;;
19521;SDS011;9905;52.126;5.596;2022-08-02T13:47:04;2.55;;;1.70;;
19521;SDS011;9905;52.126;5.596;2022-08-02T13:49:32;1.80;;;1.38;;
19521;SDS011;9905;52.126;5.596;2022-08-02T13:51:59;1.65;;;1.55;;
19521;SDS011;9905;52.126;5.596;2022-08-02T13:54:25;3.05;;;1.52;;
19521;SDS011;9905;52.126;5.596;2022-08-02T13:56:52;2.15;;;1.50;;
19521;SDS011;9905;52.126;5.596;2022-08-02T13:59:19;1.60;;;1.50;;
19521;SDS011;9905;52.126;5.596;2022-08-02T14:01:45;1.50;;;1.40;;
19521;SDS011;9905;52.126;5.596;2022-08-02T14:04:13;1.80;;;1.38;;
19521;SDS011;9905;52.126;5.596;2022-08-02T14:06:40;1.48;;;1.38;;
19521;SDS011;9905;52.126;5.596;2022-08-02T14:09:07;1.45;;;1.15;;
19521;SDS011;9905;52.126;5.596;2022-08-02T14:11:33;1.30;;;1.20;;
19521;SDS011;9905;52.126;5.596;2022-08-02T14:14:00;1.65;;;1.27;;
19521;SDS011;9905;52.126;5.596;2022-08-02T14:16:27;1.33;;;1.23;;
19521;SDS011;9905;52.126;5.596;2022-08-02T14:18:53;0.90;;;0.90;;
19521;SDS011;9905;52.126;5.596;2022-08-02T14:21:25;1.50;;;0.98;;
19521;SDS011;9905;52.126;5.596;2022-08-02T14:23:52;1.48;;;1.17;;
19521;SDS011;9905;52.126;5.596;2022-08-02T14:26:18;1.67;;;1.00;;
19521;SDS011;9905;52.126;5.596;2022-08-02T14:28:45;2.20;;;1.17;;
19521;SDS011;9905;52.126;5.596;2022-08-02T14:31:12;1.35;;;1.25;;
19521;SDS011;9905;52.126;5.596;2022-08-02T14:33:38;2.83;;;1.20;;
19521;SDS011;9905;52.126;5.596;2022-08-02T14:36:05;0.88;;;0.88;;
19521;SDS011;9905;52.126;5.596;2022-08-02T14:38:33;1.35;;;1.20;;
19521;SDS011;9905;52.126;5.596;2022-08-02T14:41:01;1.58;;;1.48;;
19521;SDS011;9905;52.126;5.596;2022-08-02T14:43:28;1.25;;;1.20;;
19521;SDS011;9905;52.126;5.596;2022-08-02T14:46:12;2.42;;;1.60;;
19521;SDS011;9905;52.126;5.596;2022-08-02T14:48:39;2.17;;;1.33;;
19521;SDS011;9905;52.126;5.596;2022-08-02T14:51:06;2.40;;;1.27;;
19521;SDS011;9905;52.126;5.596;2022-08-02T14:53:34;1.30;;;1.20;;
19521;SDS011;9905;52.126;5.596;2022-08-02T14:56:00;1.40;;;1.30;;
19521;SDS011;9905;52.126;5.596;2022-08-02T14:58:27;3.28;;;1.48;;
19521;SDS011;9905;52.126;5.596;2022-08-02T15:00:54;2.63;;;1.40;;
19521;SDS011;9905;52.126;5.596;2022-08-02T15:03:21;1.88;;;1.73;;
19521;SDS011;9905;52.126;5.596;2022-08-02T15:05:47;1.77;;;1.55;;
19521;SDS011;9905;52.126;5.596;2022-08-02T15:08:14;4.13;;;1.98;;
19521;SDS011;9905;52.126;5.596;2022-08-02T15:10:42;1.88;;;1.50;;
19521;SDS011;9905;52.126;5.596;2022-08-02T15:13:09;1.77;;;1.65;;
19521;SDS011;9905;52.126;5.596;2022-08-02T15:15:36;1.67;;;1.58;;
19521;SDS011;9905;52.126;5.596;2022-08-02T15:18:03;3.40;;;1.60;;
19521;SDS011;9905;52.126;5.596;2022-08-02T15:20:29;2.70;;;1.60;;
19521;SDS011;9905;52.126;5.596;2022-08-02T15:22:56;1.63;;;1.52;;
19521;SDS011;9905;52.126;5.596;2022-08-02T15:25:24;2.25;;;1.70;;